sensor_id;sensor_type;location;lat;lon;timestamp;temperature;humidity
21762;DHT22;11203;50.870;20.682;2023-04-03T14:04:50;3.00;99.90
21762;DHT22;11203;50.870;20.682;2023-04-03T14:07:24;3.10;99.90
21762;DHT22;11203;50.870;20.682;2023-04-03T14:09:51;3.10;99.90
21762;DHT22;11203;50.870;20.682;2023-04-03T14:12:31;3.10;99.90
21762;DHT22;11203;50.870;20.682;2023-04-03T14:15:02;3.10;99.90
21762;DHT22;11203;50.870;20.682;2023-04-03T14:17:31;3.30;99.90
21762;DHT22;11203;50.870;20.682;2023-04-03T14:19:57;3.30;99.90
21762;DHT22;11203;50.870;20.682;2023-04-03T14:22:28;3.40;99.90
21762;DHT22;11203;50.870;20.682;2023-04-03T14:24:56;3.30;99.90
21762;DHT22;11203;50.870;20.682;2023-04-03T14:27:27;3.20;99.90
21762;DHT22;11203;50.870;20.682;2023-04-03T14:29:57;3.30;99.90
21762;DHT22;11203;50.870;20.682;2023-04-03T14:32:24;3.40;99.90
21762;DHT22;11203;50.870;20.682;2023-04-03T14:34:52;3.40;99.90
21762;DHT22;11203;50.870;20.682;2023-04-03T14:37:24;3.40;99.90
21762;DHT22;11203;50.870;20.682;2023-04-03T14:39:54;3.40;99.90
21762;DHT22;11203;50.870;20.682;2023-04-03T14:42:28;3.40;99.90
21762;DHT22;11203;50.870;20.682;2023-04-03T14:45:00;3.40;99.90
21762;DHT22;11203;50.870;20.682;2023-04-03T14:47:30;3.30;99.90
21762;DHT22;11203;50.870;20.682;2023-04-03T14:49:57;3.20;99.90
21762;DHT22;11203;50.870;20.682;2023-04-03T14:52:25;3.00;99.90
21762;DHT22;11203;50.870;20.682;2023-04-03T14:54:53;3.00;99.90
21762;DHT22;11203;50.870;20.682;2023-04-03T14:57:22;3.00;99.90
21762;DHT22;11203;50.870;20.682;2023-04-03T14:59:51;3.00;99.90
21762;DHT22;11203;50.870;20.682;2023-04-03T15:02:37;2.90;99.90
21762;DHT22;11203;50.870;20.682;2023-04-03T15:05:08;2.90;99.90
21762;DHT22;11203;50.870;20.682;2023-04-03T15:10:39;3.00;99.90
21762;DHT22;11203;50.870;20.682;2023-04-03T15:13:05;3.00;99.90
21762;DHT22;11203;50.870;20.682;2023-04-03T15:15:31;3.00;99.90
21762;DHT22;11203;50.870;20.682;2023-04-03T15:17:59;2.90;99.90
21762;DHT22;11203;50.870;20.682;2023-04-03T15:20:27;2.80;99.90
21762;DHT22;11203;50.870;20.682;2023-04-03T15:22:56;2.90;99.90
21762;DHT22;11203;50.870;20.682;2023-04-03T15:25:23;2.90;99.90
21762;DHT22;11203;50.870;20.682;2023-04-03T15:27:50;2.90;99.90
21762;DHT22;11203;50.870;20.682;2023-04-03T15:30:18;2.90;99.90
21762;DHT22;11203;50.870;20.682;2023-04-03T15:32:45;2.90;99.90
21762;DHT22;11203;50.870;20.682;2023-04-03T15:35:11;2.90;99.90
21762;DHT22;11203;50.870;20.682;2023-04-03T15:37:37;2.80;99.90
21762;DHT22;11203;50.870;20.682;2023-04-03T15:40:05;2.80;99.90
21762;DHT22;11203;50.870;20.682;2023-04-03T15:42:32;2.80;99.90
21762;DHT22;11203;50.870;20.682;2023-04-03T15:44:58;2.80;99.90
21762;DHT22;11203;50.870;20.682;2023-04-03T15:47:25;2.80;99.90
21762;DHT22;11203;50.870;20.682;2023-04-03T15:49:53;2.60;99.90
21762;DHT22;11203;50.870;20.682;2023-04-03T15:52:19;2.70;99.90
21762;DHT22;11203;50.870;20.682;2023-04-03T15:54:47;2.70;99.90
21762;DHT22;11203;50.870;20.682;2023-04-03T15:57:13;2.60;99.90
21762;DHT22;11203;50.870;20.682;2023-04-03T15:59:39;2.50;99.90
21762;DHT22;11203;50.870;20.682;2023-04-03T16:02:08;2.60;99.90
21762;DHT22;11203;50.870;20.682;2023-04-03T16:04:35;2.50;99.90
21762;DHT22;11203;50.870;20.682;2023-04-03T16:07:03;2.50;99.90
21762;DHT22;11203;50.870;20.682;2023-04-03T16:09:31;2.50;99.90
21762;DHT22;11203;50.870;20.682;2023-04-03T16:11:57;2.60;99.90
21762;DHT22;11203;50.870;20.682;2023-04-03T16:14:23;2.60;99.90
21762;DHT22;11203;50.870;20.682;2023-04-03T16:16:49;2.70;99.90
21762;DHT22;11203;50.870;20.682;2023-04-03T16:19:16;2.60;99.90
21762;DHT22;11203;50.870;20.682;2023-04-03T16:21:42;2.50;99.90
21762;DHT22;11203;50.870;20.682;2023-04-03T16:24:08;2.50;99.90
21762;DHT22;11203;50.870;20.682;2023-04-03T16:26:34;2.50;99.90
21762;DHT22;11203;50.870;20.682;2023-04-03T16:29:00;2.50;99.90
21762;DHT22;11203;50.870;20.682;2023-04-03T16:31:27;2.40;99.90
21762;DHT22;11203;50.870;20.682;2023-04-03T16:33:55;2.50;99.90
21762;DHT22;11203;50.870;20.682;2023-04-03T16:36:22;2.50;99.90
21762;DHT22;11203;50.870;20.682;2023-04-03T16:38:50;2.50;99.90
21762;DHT22;11203;50.870;20.682;2023-04-03T16:41:16;2.40;99.90
21762;DHT22;11203;50.870;20.682;2023-04-03T16:43:42;2.40;99.90
21762;DHT22;11203;50.870;20.682;2023-04-03T16:46:08;2.30;99.90
21762;DHT22;11203;50.870;20.682;2023-04-03T16:48:34;2.30;99.90
21762;DHT22;11203;50.870;20.682;2023-04-03T16:51:01;2.20;99.90
21762;DHT22;11203;50.870;20.682;2023-04-03T16:53:27;2.10;99.90
21762;DHT22;11203;50.870;20.682;2023-04-03T16:55:54;2.10;99.90
21762;DHT22;11203;50.870;20.682;2023-04-03T16:58:20;2.00;99.90
21762;DHT22;11203;50.870;20.682;2023-04-03T17:00:46;2.00;99.90
21762;DHT22;11203;50.870;20.682;2023-04-03T17:03:13;2.00;99.90
21762;DHT22;11203;50.870;20.682;2023-04-03T17:05:39;2.00;99.90
21762;DHT22;11203;50.870;20.682;2023-04-03T17:08:06;1.90;99.90
21762;DHT22;11203;50.870;20.682;2023-04-03T17:10:32;2.00;99.90
21762;DHT22;11203;50.870;20.682;2023-04-03T17:13:00;1.80;99.90
21762;DHT22;11203;50.870;20.682;2023-04-03T17:15:26;1.90;99.90
21762;DHT22;11203;50.870;20.682;2023-04-03T17:17:53;1.80;99.90
21762;DHT22;11203;50.870;20.682;2023-04-03T17:20:19;1.80;99.90
21762;DHT22;11203;50.870;20.682;2023-04-03T17:22:46;1.80;99.90
21762;DHT22;11203;50.870;20.682;2023-04-03T17:25:12;1.80;99.90
21762;DHT22;11203;50.870;20.682;2023-04-03T17:27:40;1.80;99.90
21762;DHT22;11203;50.870;20.682;2023-04-03T17:30:07;1.70;99.90
21762;DHT22;11203;50.870;20.682;2023-04-03T17:32:34;1.70;99.90
21762;DHT22;11203;50.870;20.682;2023-04-03T17:35:00;1.70;99.90
21762;DHT22;11203;50.870;20.682;2023-04-03T17:37:27;1.70;99.90
21762;DHT22;11203;50.870;20.682;2023-04-03T17:39:53;1.70;99.90
21762;DHT22;11203;50.870;20.682;2023-04-03T17:42:19;1.70;99.90
21762;DHT22;11203;50.870;20.682;2023-04-03T17:44:46;1.70;99.90
21762;DHT22;11203;50.870;20.682;2023-04-03T17:47:12;1.70;99.90
21762;DHT22;11203;50.870;20.682;2023-04-03T17:49:39;1.60;99.90
21762;DHT22;11203;50.870;20.682;2023-04-03T17:52:06;1.60;99.90
21762;DHT22;11203;50.870;20.682;2023-04-03T17:54:32;1.60;99.90
21762;DHT22;11203;50.870;20.682;2023-04-03T17:56:58;1.60;99.90
21762;DHT22;11203;50.870;20.682;2023-04-03T17:59:24;1.60;99.90
21762;DHT22;11203;50.870;20.682;2023-04-03T18:01:51;1.50;99.90
21762;DHT22;11203;50.870;20.682;2023-04-03T18:04:18;1.50;99.90
21762;DHT22;11203;50.870;20.682;2023-04-03T18:06:47;1.50;99.90
21762;DHT22;11203;50.870;20.682;2023-04-03T18:09:17;1.50;99.90
21762;DHT22;11203;50.870;20.682;2023-04-03T18:11:46;1.50;99.90
21762;DHT22;11203;50.870;20.682;2023-04-03T18:14:15;1.40;99.90
21762;DHT22;11203;50.870;20.682;2023-04-03T18:16:43;1.50;99.90
21762;DHT22;11203;50.870;20.682;2023-04-03T18:19:10;1.40;99.90
21762;DHT22;11203;50.870;20.682;2023-04-03T18:21:38;1.40;99.90
21762;DHT22;11203;50.870;20.682;2023-04-03T18:24:06;1.40;99.90
21762;DHT22;11203;50.870;20.682;2023-04-03T18:26:36;1.40;99.90
21762;DHT22;11203;50.870;20.682;2023-04-03T18:29:04;1.40;99.90
21762;DHT22;11203;50.870;20.682;2023-04-03T18:31:33;1.30;99.90
21762;DHT22;11203;50.870;20.682;2023-04-03T18:34:00;1.30;99.90
21762;DHT22;11203;50.870;20.682;2023-04-03T18:36:27;1.30;99.90
21762;DHT22;11203;50.870;20.682;2023-04-03T18:38:54;1.20;99.90
21762;DHT22;11203;50.870;20.682;2023-04-03T18:41:23;1.20;99.90
21762;DHT22;11203;50.870;20.682;2023-04-03T18:43:55;1.20;99.90
21762;DHT22;11203;50.870;20.682;2023-04-03T18:46:22;1.20;99.90
21762;DHT22;11203;50.870;20.682;2023-04-03T18:48:48;1.20;99.90
21762;DHT22;11203;50.870;20.682;2023-04-03T18:51:15;1.10;99.90
21762;DHT22;11203;50.870;20.682;2023-04-03T18:53:41;1.10;99.90
21762;DHT22;11203;50.870;20.682;2023-04-03T18:56:07;1.20;99.90
21762;DHT22;11203;50.870;20.682;2023-04-03T18:58:34;1.10;99.90
21762;DHT22;11203;50.870;20.682;2023-04-03T19:01:00;1.20;99.90
21762;DHT22;11203;50.870;20.682;2023-04-03T19:03:27;1.00;99.90
21762;DHT22;11203;50.870;20.682;2023-04-03T19:05:55;1.10;99.90
21762;DHT22;11203;50.870;20.682;2023-04-03T19:08:22;1.10;99.90
21762;DHT22;11203;50.870;20.682;2023-04-03T19:10:49;1.10;99.90
21762;DHT22;11203;50.870;20.682;2023-04-03T19:13:15;1.00;99.90
21762;DHT22;11203;50.870;20.682;2023-04-03T19:15:42;1.00;99.90
21762;DHT22;11203;50.870;20.682;2023-04-03T19:18:08;1.00;99.90
21762;DHT22;11203;50.870;20.682;2023-04-03T19:20:34;0.90;99.90
21762;DHT22;11203;50.870;20.682;2023-04-03T19:23:01;0.90;99.90
21762;DHT22;11203;50.870;20.682;2023-04-03T19:25:27;0.90;99.90
21762;DHT22;11203;50.870;20.682;2023-04-03T19:27:53;0.90;99.90
21762;DHT22;11203;50.870;20.682;2023-04-03T19:30:20;0.80;99.90
21762;DHT22;11203;50.870;20.682;2023-04-03T19:32:46;0.80;99.90
21762;DHT22;11203;50.870;20.682;2023-04-03T19:35:12;0.70;99.90
21762;DHT22;11203;50.870;20.682;2023-04-03T19:37:41;0.70;99.90
21762;DHT22;11203;50.870;20.682;2023-04-03T19:40:08;0.70;99.90
21762;DHT22;11203;50.870;20.682;2023-04-03T19:42:35;0.70;99.90
21762;DHT22;11203;50.870;20.682;2023-04-03T19:45:06;0.60;99.90
21762;DHT22;11203;50.870;20.682;2023-04-03T19:47:33;0.50;99.90
21762;DHT22;11203;50.870;20.682;2023-04-03T19:50:00;0.60;99.90
21762;DHT22;11203;50.870;20.682;2023-04-03T19:52:27;0.50;99.90
21762;DHT22;11203;50.870;20.682;2023-04-03T19:54:53;0.40;99.90
21762;DHT22;11203;50.870;20.682;2023-04-03T19:57:19;0.50;99.90
21762;DHT22;11203;50.870;20.682;2023-04-03T19:59:45;0.40;99.90
21762;DHT22;11203;50.870;20.682;2023-04-03T20:02:11;0.40;99.90
21762;DHT22;11203;50.870;20.682;2023-04-03T20:04:37;0.30;99.90
21762;DHT22;11203;50.870;20.682;2023-04-03T20:07:03;0.20;99.90
21762;DHT22;11203;50.870;20.682;2023-04-03T20:09:30;0.30;99.90
21762;DHT22;11203;50.870;20.682;2023-04-03T20:11:57;0.30;99.90
21762;DHT22;11203;50.870;20.682;2023-04-03T20:14:25;0.20;99.90
21762;DHT22;11203;50.870;20.682;2023-04-03T20:16:51;0.20;99.90
21762;DHT22;11203;50.870;20.682;2023-04-03T20:19:18;0.10;99.90
21762;DHT22;11203;50.870;20.682;2023-04-03T20:21:44;0.10;99.90
21762;DHT22;11203;50.870;20.682;2023-04-03T20:24:10;0.10;99.90
21762;DHT22;11203;50.870;20.682;2023-04-03T20:26:37;0.10;99.90
21762;DHT22;11203;50.870;20.682;2023-04-03T20:29:08;0.10;99.90
21762;DHT22;11203;50.870;20.682;2023-04-03T20:31:34;-0.10;99.90
21762;DHT22;11203;50.870;20.682;2023-04-03T20:34:00;-0.10;99.90
21762;DHT22;11203;50.870;20.682;2023-04-03T20:36:27;-0.10;99.90
21762;DHT22;11203;50.870;20.682;2023-04-03T20:38:54;-0.10;99.90
21762;DHT22;11203;50.870;20.682;2023-04-03T20:41:20;-0.20;99.90
21762;DHT22;11203;50.870;20.682;2023-04-03T20:43:48;-0.10;99.90
21762;DHT22;11203;50.870;20.682;2023-04-03T20:46:14;-0.20;99.90
21762;DHT22;11203;50.870;20.682;2023-04-03T20:48:45;-0.20;99.90
21762;DHT22;11203;50.870;20.682;2023-04-03T20:51:15;-0.20;99.90
21762;DHT22;11203;50.870;20.682;2023-04-03T20:53:44;-0.20;99.90
21762;DHT22;11203;50.870;20.682;2023-04-03T20:56:11;-0.20;99.90
21762;DHT22;11203;50.870;20.682;2023-04-03T20:58:37;-0.10;99.90
21762;DHT22;11203;50.870;20.682;2023-04-03T21:01:13;-0.10;99.90
21762;DHT22;11203;50.870;20.682;2023-04-03T21:03:45;-0.10;99.90
21762;DHT22;11203;50.870;20.682;2023-04-03T21:21:32;-0.20;99.90
21762;DHT22;11203;50.870;20.682;2023-04-03T21:24:02;-0.10;99.90
21762;DHT22;11203;50.870;20.682;2023-04-03T21:26:32;-0.20;99.90
21762;DHT22;11203;50.870;20.682;2023-04-03T21:29:01;-0.20;99.90
21762;DHT22;11203;50.870;20.682;2023-04-03T21:31:48;-0.10;99.90
21762;DHT22;11203;50.870;20.682;2023-04-03T21:34:25;-0.10;99.90
21762;DHT22;11203;50.870;20.682;2023-04-03T21:36:53;-0.20;99.90
21762;DHT22;11203;50.870;20.682;2023-04-03T21:39:20;-0.20;99.90
21762;DHT22;11203;50.870;20.682;2023-04-03T21:41:49;-0.20;99.90
21762;DHT22;11203;50.870;20.682;2023-04-03T21:44:16;-0.20;99.90
21762;DHT22;11203;50.870;20.682;2023-04-03T21:46:43;-0.20;99.90
21762;DHT22;11203;50.870;20.682;2023-04-03T21:49:10;-0.20;99.90
21762;DHT22;11203;50.870;20.682;2023-04-03T21:51:37;-0.20;99.90
21762;DHT22;11203;50.870;20.682;2023-04-03T21:54:03;-0.20;99.90
21762;DHT22;11203;50.870;20.682;2023-04-03T21:56:30;-0.20;99.90
21762;DHT22;11203;50.870;20.682;2023-04-03T21:58:56;-0.20;99.90
21762;DHT22;11203;50.870;20.682;2023-04-03T22:01:25;-0.20;99.90
21762;DHT22;11203;50.870;20.682;2023-04-03T22:03:51;-0.20;99.90
21762;DHT22;11203;50.870;20.682;2023-04-03T22:06:17;-0.30;99.90
21762;DHT22;11203;50.870;20.682;2023-04-03T22:08:44;-0.20;99.90
21762;DHT22;11203;50.870;20.682;2023-04-03T22:11:12;-0.20;99.90
21762;DHT22;11203;50.870;20.682;2023-04-03T22:13:40;-0.20;99.90
21762;DHT22;11203;50.870;20.682;2023-04-03T22:16:07;-0.10;99.90
21762;DHT22;11203;50.870;20.682;2023-04-03T22:18:34;-0.10;99.90
21762;DHT22;11203;50.870;20.682;2023-04-03T22:21:01;-0.10;99.90
21762;DHT22;11203;50.870;20.682;2023-04-03T22:23:27;-0.10;99.90
21762;DHT22;11203;50.870;20.682;2023-04-03T22:26:10;0.00;99.90
21762;DHT22;11203;50.870;20.682;2023-04-03T22:28:42;-0.10;99.90
21762;DHT22;11203;50.870;20.682;2023-04-03T22:31:09;-0.10;99.90
21762;DHT22;11203;50.870;20.682;2023-04-03T22:33:38;0.00;99.90
21762;DHT22;11203;50.870;20.682;2023-04-03T22:36:07;0.00;99.90
21762;DHT22;11203;50.870;20.682;2023-04-03T22:38:34;0.00;99.90
21762;DHT22;11203;50.870;20.682;2023-04-03T22:41:03;0.00;99.90
21762;DHT22;11203;50.870;20.682;2023-04-03T22:43:31;0.00;99.90
21762;DHT22;11203;50.870;20.682;2023-04-03T22:45:59;0.00;99.90
21762;DHT22;11203;50.870;20.682;2023-04-03T22:48:26;0.00;99.90
21762;DHT22;11203;50.870;20.682;2023-04-03T22:50:53;0.00;99.90
21762;DHT22;11203;50.870;20.682;2023-04-03T22:53:20;0.00;99.90
21762;DHT22;11203;50.870;20.682;2023-04-03T22:56:00;0.00;99.90
21762;DHT22;11203;50.870;20.682;2023-04-03T22:58:28;-0.10;99.90
21762;DHT22;11203;50.870;20.682;2023-04-03T23:03:35;0.00;99.90
21762;DHT22;11203;50.870;20.682;2023-04-03T23:06:04;0.00;99.90
21762;DHT22;11203;50.870;20.682;2023-04-03T23:08:31;-0.10;99.90
21762;DHT22;11203;50.870;20.682;2023-04-03T23:11:00;-0.10;99.90
21762;DHT22;11203;50.870;20.682;2023-04-03T23:13:26;-0.10;99.90
21762;DHT22;11203;50.870;20.682;2023-04-03T23:15:54;-0.20;99.90
21762;DHT22;11203;50.870;20.682;2023-04-03T23:18:20;-0.20;99.90
21762;DHT22;11203;50.870;20.682;2023-04-03T23:20:47;-0.30;99.90
21762;DHT22;11203;50.870;20.682;2023-04-03T23:23:23;-0.30;99.90
21762;DHT22;11203;50.870;20.682;2023-04-03T23:25:57;-0.30;99.90
21762;DHT22;11203;50.870;20.682;2023-04-03T23:28:27;-0.30;99.90
21762;DHT22;11203;50.870;20.682;2023-04-03T23:31:00;-0.40;99.90
21762;DHT22;11203;50.870;20.682;2023-04-03T23:33:31;-0.40;99.90
21762;DHT22;11203;50.870;20.682;2023-04-03T23:35:59;-0.40;99.90
21762;DHT22;11203;50.870;20.682;2023-04-03T23:38:31;-0.40;99.90
21762;DHT22;11203;50.870;20.682;2023-04-03T23:41:00;-0.50;99.90
21762;DHT22;11203;50.870;20.682;2023-04-03T23:43:26;-0.60;99.90
21762;DHT22;11203;50.870;20.682;2023-04-03T23:45:53;-0.60;99.90
21762;DHT22;11203;50.870;20.682;2023-04-03T23:48:19;-0.60;99.90
21762;DHT22;11203;50.870;20.682;2023-04-03T23:50:45;-0.60;99.90
21762;DHT22;11203;50.870;20.682;2023-04-03T23:53:11;-0.70;99.90
21762;DHT22;11203;50.870;20.682;2023-04-03T23:55:38;-0.70;99.90
21762;DHT22;11203;50.870;20.682;2023-04-03T23:58:04;-0.60;99.90
